Solana — WCY5602 — position and weather

sailwx.info

Track history (hours):
 
Tides and Currents Weather Stations Pressure Air Temp Water Temp Dewpoint Dewpoint Depression Visibility Wind Speed Wind Dir Waves Ship Positions

Solana

Owner: TAURUS MARINE, SAN FRANCISCO, CA. More information available from US FCC via Universal Licensing System and Coast Guard Vessel Documentation Center.

Last reported at 2015-May-24 18:04 UTC. Time now 2015-May-25 03:21 UTC.
Position N 47°39' W 122°20'.

Type: Towing. MMSI: 366969740.

Date/timePositionNaut miles runAvg speedWind from/ knotsBaromVisibWave heightAir tempDewpointWater temp
2015-May-24 18:04N 47°39' W 122°20'1 3.1
2015-May-24 17:45N 47°39' W 122°19'1 5.3
2015-May-24 17:31N 47°39' W 122°17'1 5.0
2015-May-24 17:21N 47°39' W 122°16'1 1.0
2015-May-24 16:34N 47°39' W 122°15'0 1.5
2015-May-24 16:25N 47°39' W 122°15'3 4.1
2015-May-24 15:33N 47°39' W 122°20'0 0.0
2015-May-24 15:29N 47°39' W 122°20'0 0.0
2015-May-23 22:00N 47°39' W 122°20'2 3.4
2015-May-23 21:32N 47°39' W 122°18'1 5.1
2015-May-23 21:25N 47°39' W 122°17'1 1.5
2015-May-23 20:33N 47°38' W 122°15'0 0.0
2015-May-23 20:19N 47°38' W 122°15'0 0.3
2015-May-23 19:33N 47°38' W 122°15'0 0.0
2015-May-23 18:38N 47°39' W 122°15'0 1.2
2015-May-23 18:34N 47°38' W 122°15'0 0.0
2015-May-23 18:33N 47°38' W 122°15'1 0.6
2015-May-23 17:33N 47°39' W 122°16'0 0.0
2015-May-23 17:33N 47°39' W 122°16'3 3.1
2015-May-23 16:33N 47°39' W 122°20'0 0.0
2015-May-23 16:32N 47°39' W 122°20'0 0.0
2015-May-23 15:33N 47°39' W 122°20'0 0.0
2015-May-23 15:32N 47°39' W 122°20'0 0.0
2015-May-22 20:23N 47°39' W 122°20'0 0.0
2015-May-22 20:23N 47°39' W 122°20'0 0.0
2015-May-22 13:33N 47°39' W 122°20'0 0.0
2015-May-21 18:11N 47°39' W 122°20'0 2.1
2015-May-21 18:09N 47°39' W 122°20'3 4.3
2015-May-21 17:33N 47°40' W 122°24'0 0.0
2015-May-21 17:33N 47°40' W 122°24'3 3.5
2015-May-21 16:33N 47°36' W 122°23'0 8.8
2015-May-21 16:32N 47°36' W 122°23'3 0.2
2015-May-21 02:44N 47°34' W 122°21'0 0.0
2015-May-21 02:33N 47°34' W 122°21'0 0.8
2015-May-21 02:18N 47°34' W 122°21'0 0.0
2015-May-21 01:33N 47°34' W 122°21'0 0.0
2015-May-21 01:33N 47°34' W 122°21'0 0.1
2015-May-21 00:33N 47°34' W 122°21'0 5.0
2015-May-21 00:32N 47°34' W 122°21'0 0.3
2015-May-20 23:33N 47°34' W 122°21'0 0.0
2015-May-20 23:31N 47°34' W 122°21'0 0.3
2015-May-20 22:33N 47°34' W 122°21'0 0.0
2015-May-20 22:25N 47°34' W 122°21'0 0.0
2015-May-20 05:31N 47°34' W 122°21'0 0.0
2015-May-20 05:23N 47°34' W 122°21'5 6.3
2015-May-20 04:33N 47°38' W 122°25'0 0.0
2015-May-20 04:33N 47°38' W 122°25'3 2.9
2015-May-20 03:34N 47°36' W 122°27'0 7.2
2015-May-20 03:33N 47°36' W 122°27'2 1.8
2015-May-20 02:33N 47°34' W 122°29'0 9.1
2015-May-20 02:32N 47°35' W 122°29'8 8.6
2015-May-20 01:33N 47°43' W 122°28'0 8.6
2015-May-20 01:32N 47°43' W 122°28'9 8.7
2015-May-20 00:33N 47°51' W 122°23'2 8.4
2015-May-20 00:16N 47°54' W 122°22'6 8.4
2015-May-19 23:31N 47°60' W 122°21'21 6.5
2015-May-19 20:20N 48°17' W 122°37'0 0.0
2015-May-19 19:21N 48°17' W 122°37'0 0.0
2015-May-19 17:25N 48°17' W 122°37'0 0.0
2015-May-19 14:25N 48°17' W 122°37'14 4.2
2015-May-19 11:11N 48°05' W 122°27'4 5.9
2015-May-19 10:30N 48°02' W 122°23'4 6.3
2015-May-19 09:49N 47°59' W 122°20'2 6.1
2015-May-19 09:33N 47°57' W 122°20'6 6.1
2015-May-19 08:33N 47°51' W 122°23'2 3.0
2015-May-19 07:44N 47°49' W 122°24'1 5.0
2015-May-19 07:33N 47°48' W 122°25'0 4.6
2015-May-19 07:29N 47°48' W 122°25'3 5.2
2015-May-19 06:49N 47°45' W 122°26'2 5.7
2015-May-19 06:33N 47°43' W 122°26'5 5.5
2015-May-19 05:33N 47°38' W 122°27'0 5.2
2015-May-19 05:28N 47°37' W 122°27'4 4.6
2015-May-19 04:33N 47°34' W 122°31'0 6.8
2015-May-19 04:33N 47°34' W 122°31'1 0.5
2015-May-19 03:33N 47°34' W 122°31'5 7.0
2015-May-19 02:51N 47°38' W 122°28'2 8.2
2015-May-19 02:34N 47°40' W 122°27'0 7.9
2015-May-19 02:31N 47°40' W 122°26'4 4.0
2015-May-19 01:34N 47°39' W 122°21'0 4.7
2015-May-19 01:31N 47°39' W 122°21'0 0.2
2015-May-19 00:34N 47°39' W 122°20'0 0.0
2015-May-19 00:31N 47°39' W 122°20'0 0.0
2015-May-18 23:33N 47°39' W 122°20'0 0.0
2015-May-18 23:30N 47°39' W 122°20'0 0.0
2015-May-18 22:25N 47°39' W 122°20'0 1.1
2015-May-18 22:24N 47°39' W 122°20'0 0.0
2015-May-18 21:33N 47°39' W 122°20'0 0.0
2015-May-18 21:29N 47°39' W 122°20'0 0.0
2015-May-18 20:34N 47°39' W 122°20'0 0.0
2015-May-18 20:29N 47°39' W 122°20'0 0.0
2015-May-18 19:33N 47°39' W 122°20'0 0.0
2015-May-18 18:23N 47°39' W 122°20'0 0.0
2015-May-18 18:22N 47°39' W 122°20'0 0.0
2015-May-18 17:29N 47°39' W 122°20'0 0.0
2015-May-18 17:28N 47°39' W 122°20'0 0.0
2015-May-18 16:34N 47°39' W 122°20'0 0.0
2015-May-18 16:32N 47°39' W 122°20'0 0.0
2015-May-18 15:33N 47°39' W 122°20'0 0.0
2015-May-18 15:32N 47°39' W 122°20'0 0.0
2015-May-18 14:32N 47°39' W 122°20'0 0.0
2015-May-18 14:26N 47°39' W 122°20'0 0.0
2015-May-17 07:53N 47°39' W 122°20'2 3.6
2015-May-17 07:26N 47°39' W 122°18'1 1.3
2015-May-17 06:44N 47°39' W 122°17'1 5.6
2015-May-17 06:33N 47°39' W 122°18'1 3.8
2015-May-17 06:13N 47°39' W 122°20'1 5.2
2015-May-17 06:03N 47°39' W 122°21'2 4.2
2015-May-17 05:34N 47°40' W 122°24'3 2.6
2015-May-17 04:34N 47°38' W 122°26'0 7.2
2015-May-17 04:33N 47°38' W 122°26'9 9.4
2015-May-17 03:34N 47°29' W 122°30'0 9.7
2015-May-17 03:32N 47°29' W 122°30'9 9.5
2015-May-17 02:34N 47°20' W 122°32'6 6.3
2015-May-17 01:34N 47°16' W 122°24'8 8.2
2015-May-17 00:33N 47°22' W 122°32'7 8.4
2015-May-16 23:44N 47°29' W 122°30'2 9.3
2015-May-16 23:34N 47°31' W 122°29'2 9.1
2015-May-16 23:23N 47°32' W 122°28'8 9.1
2015-May-16 22:34N 47°40' W 122°27'1 9.2
2015-May-16 22:29N 47°40' W 122°26'3 3.3
2015-May-16 21:34N 47°39' W 122°22'0 5.9
2015-May-16 21:29N 47°39' W 122°21'1 0.7
2015-May-16 20:34N 47°39' W 122°20'0 0.6
2015-May-16 20:33N 47°39' W 122°20'0 0.0
2015-May-16 19:34N 47°39' W 122°20'0 0.0
2015-May-16 19:33N 47°39' W 122°20'0 0.0
2015-May-16 18:34N 47°39' W 122°20'0 1.0
2015-May-16 18:33N 47°39' W 122°20'0 0.0
2015-May-16 17:34N 47°39' W 122°20'0 0.3
2015-May-16 17:32N 47°39' W 122°20'0 0.0
2015-May-16 16:34N 47°39' W 122°20'0 0.1
2015-May-16 16:30N 47°39' W 122°20'0 0.0
2015-May-16 15:34N 47°39' W 122°20'0 0.0
2015-May-16 15:31N 47°39' W 122°20'0 0.0
2015-May-14 23:31N 47°39' W 122°20'0 0.0
2015-May-14 22:34N 47°39' W 122°20'0 0.0
2015-May-14 21:34N 47°39' W 122°20'0 0.0
2015-May-14 20:33N 47°39' W 122°20'0 0.0
2015-May-14 20:08N 47°39' W 122°20'0 0.0
2015-May-14 19:34N 47°39' W 122°20'0 0.0
2015-May-14 19:33N 47°39' W 122°20'0 0.0
2015-May-14 18:33N 47°39' W 122°20'0 0.0
2015-May-14 18:32N 47°39' W 122°20'  
Track history (hours):
 
Tides and Currents Weather Stations Pressure Air Temp Water Temp Dewpoint Dewpoint Depression Visibility Wind Speed Wind Dir Waves Ship Positions

Solana

Owner: TAURUS MARINE, SAN FRANCISCO, CA. More information available from US FCC via Universal Licensing System and Coast Guard Vessel Documentation Center.

Last reported at 2015-May-24 18:04 UTC. Time now 2015-May-25 03:21 UTC.
Position N 47°39' W 122°20'.

Type: Towing. MMSI: 366969740.

Date/timePositionNaut miles runAvg speedWind from/ knotsBaromVisibWave heightAir tempDewpointWater temp
2015-May-24 18:04N 47°39' W 122°20'1 3.1
2015-May-24 17:45N 47°39' W 122°19'1 5.3
2015-May-24 17:31N 47°39' W 122°17'1 5.0
2015-May-24 17:21N 47°39' W 122°16'1 1.0
2015-May-24 16:34N 47°39' W 122°15'0 1.5
2015-May-24 16:25N 47°39' W 122°15'3 4.1
2015-May-24 15:33N 47°39' W 122°20'0 0.0
2015-May-24 15:29N 47°39' W 122°20'0 0.0
2015-May-23 22:00N 47°39' W 122°20'2 3.4
2015-May-23 21:32N 47°39' W 122°18'1 5.1
2015-May-23 21:25N 47°39' W 122°17'1 1.5
2015-May-23 20:33N 47°38' W 122°15'0 0.0
2015-May-23 20:19N 47°38' W 122°15'0 0.3
2015-May-23 19:33N 47°38' W 122°15'0 0.0
2015-May-23 18:38N 47°39' W 122°15'0 1.2
2015-May-23 18:34N 47°38' W 122°15'0 0.0
2015-May-23 18:33N 47°38' W 122°15'1 0.6
2015-May-23 17:33N 47°39' W 122°16'0 0.0
2015-May-23 17:33N 47°39' W 122°16'3 3.1
2015-May-23 16:33N 47°39' W 122°20'0 0.0
2015-May-23 16:32N 47°39' W 122°20'0 0.0
2015-May-23 15:33N 47°39' W 122°20'0 0.0
2015-May-23 15:32N 47°39' W 122°20'0 0.0
2015-May-22 20:23N 47°39' W 122°20'0 0.0
2015-May-22 20:23N 47°39' W 122°20'0 0.0
2015-May-22 13:33N 47°39' W 122°20'0 0.0
2015-May-21 18:11N 47°39' W 122°20'0 2.1
2015-May-21 18:09N 47°39' W 122°20'3 4.3
2015-May-21 17:33N 47°40' W 122°24'0 0.0
2015-May-21 17:33N 47°40' W 122°24'3 3.5
2015-May-21 16:33N 47°36' W 122°23'0 8.8
2015-May-21 16:32N 47°36' W 122°23'3 0.2
2015-May-21 02:44N 47°34' W 122°21'0 0.0
2015-May-21 02:33N 47°34' W 122°21'0 0.8
2015-May-21 02:18N 47°34' W 122°21'0 0.0
2015-May-21 01:33N 47°34' W 122°21'0 0.0
2015-May-21 01:33N 47°34' W 122°21'0 0.1
2015-May-21 00:33N 47°34' W 122°21'0 5.0
2015-May-21 00:32N 47°34' W 122°21'0 0.3
2015-May-20 23:33N 47°34' W 122°21'0 0.0
2015-May-20 23:31N 47°34' W 122°21'0 0.3
2015-May-20 22:33N 47°34' W 122°21'0 0.0
2015-May-20 22:25N 47°34' W 122°21'0 0.0
2015-May-20 05:31N 47°34' W 122°21'0 0.0
2015-May-20 05:23N 47°34' W 122°21'5 6.3
2015-May-20 04:33N 47°38' W 122°25'0 0.0
2015-May-20 04:33N 47°38' W 122°25'3 2.9
2015-May-20 03:34N 47°36' W 122°27'0 7.2
2015-May-20 03:33N 47°36' W 122°27'2 1.8
2015-May-20 02:33N 47°34' W 122°29'0 9.1
2015-May-20 02:32N 47°35' W 122°29'8 8.6
2015-May-20 01:33N 47°43' W 122°28'0 8.6
2015-May-20 01:32N 47°43' W 122°28'9 8.7
2015-May-20 00:33N 47°51' W 122°23'2 8.4
2015-May-20 00:16N 47°54' W 122°22'6 8.4
2015-May-19 23:31N 47°60' W 122°21'21 6.5
2015-May-19 20:20N 48°17' W 122°37'0 0.0
2015-May-19 19:21N 48°17' W 122°37'0 0.0
2015-May-19 17:25N 48°17' W 122°37'0 0.0
2015-May-19 14:25N 48°17' W 122°37'14 4.2
2015-May-19 11:11N 48°05' W 122°27'4 5.9
2015-May-19 10:30N 48°02' W 122°23'4 6.3
2015-May-19 09:49N 47°59' W 122°20'2 6.1
2015-May-19 09:33N 47°57' W 122°20'6 6.1
2015-May-19 08:33N 47°51' W 122°23'2 3.0
2015-May-19 07:44N 47°49' W 122°24'1 5.0
2015-May-19 07:33N 47°48' W 122°25'0 4.6
2015-May-19 07:29N 47°48' W 122°25'3 5.2
2015-May-19 06:49N 47°45' W 122°26'2 5.7
2015-May-19 06:33N 47°43' W 122°26'5 5.5
2015-May-19 05:33N 47°38' W 122°27'0 5.2
2015-May-19 05:28N 47°37' W 122°27'4 4.6
2015-May-19 04:33N 47°34' W 122°31'0 6.8
2015-May-19 04:33N 47°34' W 122°31'1 0.5
2015-May-19 03:33N 47°34' W 122°31'5 7.0
2015-May-19 02:51N 47°38' W 122°28'2 8.2
2015-May-19 02:34N 47°40' W 122°27'0 7.9
2015-May-19 02:31N 47°40' W 122°26'4 4.0
2015-May-19 01:34N 47°39' W 122°21'0 4.7
2015-May-19 01:31N 47°39' W 122°21'0 0.2
2015-May-19 00:34N 47°39' W 122°20'0 0.0
2015-May-19 00:31N 47°39' W 122°20'0 0.0
2015-May-18 23:33N 47°39' W 122°20'0 0.0
2015-May-18 23:30N 47°39' W 122°20'0 0.0
2015-May-18 22:25N 47°39' W 122°20'0 1.1
2015-May-18 22:24N 47°39' W 122°20'0 0.0
2015-May-18 21:33N 47°39' W 122°20'0 0.0
2015-May-18 21:29N 47°39' W 122°20'0 0.0
2015-May-18 20:34N 47°39' W 122°20'0 0.0
2015-May-18 20:29N 47°39' W 122°20'0 0.0
2015-May-18 19:33N 47°39' W 122°20'0 0.0
2015-May-18 18:23N 47°39' W 122°20'0 0.0
2015-May-18 18:22N 47°39' W 122°20'0 0.0
2015-May-18 17:29N 47°39' W 122°20'0 0.0
2015-May-18 17:28N 47°39' W 122°20'0 0.0
2015-May-18 16:34N 47°39' W 122°20'0 0.0
2015-May-18 16:32N 47°39' W 122°20'0 0.0
2015-May-18 15:33N 47°39' W 122°20'0 0.0
2015-May-18 15:32N 47°39' W 122°20'0 0.0
2015-May-18 14:32N 47°39' W 122°20'0 0.0
2015-May-18 14:26N 47°39' W 122°20'0 0.0
2015-May-17 07:53N 47°39' W 122°20'2 3.6
2015-May-17 07:26N 47°39' W 122°18'1 1.3
2015-May-17 06:44N 47°39' W 122°17'1 5.6
2015-May-17 06:33N 47°39' W 122°18'1 3.8
2015-May-17 06:13N 47°39' W 122°20'1 5.2
2015-May-17 06:03N 47°39' W 122°21'2 4.2
2015-May-17 05:34N 47°40' W 122°24'3 2.6
2015-May-17 04:34N 47°38' W 122°26'0 7.2
2015-May-17 04:33N 47°38' W 122°26'9 9.4
2015-May-17 03:34N 47°29' W 122°30'0 9.7
2015-May-17 03:32N 47°29' W 122°30'9 9.5
2015-May-17 02:34N 47°20' W 122°32'6 6.3
2015-May-17 01:34N 47°16' W 122°24'8 8.2
2015-May-17 00:33N 47°22' W 122°32'7 8.4
2015-May-16 23:44N 47°29' W 122°30'2 9.3
2015-May-16 23:34N 47°31' W 122°29'2 9.1
2015-May-16 23:23N 47°32' W 122°28'8 9.1
2015-May-16 22:34N 47°40' W 122°27'1 9.2
2015-May-16 22:29N 47°40' W 122°26'3 3.3
2015-May-16 21:34N 47°39' W 122°22'0 5.9
2015-May-16 21:29N 47°39' W 122°21'1 0.7
2015-May-16 20:34N 47°39' W 122°20'0 0.6
2015-May-16 20:33N 47°39' W 122°20'0 0.0
2015-May-16 19:34N 47°39' W 122°20'0 0.0
2015-May-16 19:33N 47°39' W 122°20'0 0.0
2015-May-16 18:34N 47°39' W 122°20'0 1.0
2015-May-16 18:33N 47°39' W 122°20'0 0.0
2015-May-16 17:34N 47°39' W 122°20'0 0.3
2015-May-16 17:32N 47°39' W 122°20'0 0.0
2015-May-16 16:34N 47°39' W 122°20'0 0.1
2015-May-16 16:30N 47°39' W 122°20'0 0.0
2015-May-16 15:34N 47°39' W 122°20'0 0.0
2015-May-16 15:31N 47°39' W 122°20'0 0.0
2015-May-14 23:31N 47°39' W 122°20'0 0.0
2015-May-14 22:34N 47°39' W 122°20'0 0.0
2015-May-14 21:34N 47°39' W 122°20'0 0.0
2015-May-14 20:33N 47°39' W 122°20'0 0.0
2015-May-14 20:08N 47°39' W 122°20'0 0.0
2015-May-14 19:34N 47°39' W 122°20'0 0.0
2015-May-14 19:33N 47°39' W 122°20'0 0.0
2015-May-14 18:33N 47°39' W 122°20'0 0.0
2015-May-14 18:32N 47°39' W 122°20'  

Dump ship's entire track history